createdAt,value
2023-02-19T00:02:41.562Z,11.74
2023-02-19T00:05:44.599Z,11.78
2023-02-19T00:08:47.690Z,11.77
2023-02-19T00:11:50.761Z,11.79
2023-02-19T00:14:55.332Z,11.81
2023-02-19T00:17:58.464Z,11.86
2023-02-19T00:21:01.209Z,11.86
2023-02-19T00:24:06.799Z,11.96
2023-02-19T00:27:09.566Z,11.96
2023-02-19T00:30:12.868Z,11.97
2023-02-19T00:33:16.820Z,12.00
2023-02-19T00:36:20.119Z,11.99
2023-02-19T00:39:22.791Z,11.99
2023-02-19T00:42:26.309Z,11.97
2023-02-19T00:45:29.089Z,11.87
2023-02-19T00:48:32.025Z,11.87
2023-02-19T00:51:37.510Z,11.84
2023-02-19T00:54:40.480Z,11.76
2023-02-19T00:57:43.187Z,11.73
2023-02-19T01:00:46.787Z,11.70
2023-02-19T01:03:50.494Z,11.70
2023-02-19T01:06:53.727Z,11.71
2023-02-19T01:09:56.456Z,11.76
2023-02-19T01:12:59.502Z,11.81
2023-02-19T01:16:05.378Z,11.85
2023-02-19T01:19:08.505Z,11.83
2023-02-19T01:22:11.185Z,11.82
2023-02-19T01:25:14.235Z,11.79
2023-02-19T01:28:17.322Z,11.75
2023-02-19T01:31:23.398Z,11.61
2023-02-19T01:34:27.260Z,11.41
2023-02-19T01:37:31.268Z,11.18
2023-02-19T01:40:34.469Z,10.93
2023-02-19T01:44:03.205Z,10.65
2023-02-19T01:47:06.021Z,10.52
2023-02-19T01:50:09.277Z,10.37
2023-02-19T01:53:15.442Z,10.27
2023-02-19T01:56:20.611Z,10.22
2023-02-19T01:59:23.656Z,10.20
2023-02-19T02:02:28.608Z,10.18
2023-02-19T02:05:53.431Z,10.17
2023-02-19T02:09:16.754Z,10.07
2023-02-19T02:12:19.815Z,10.05
2023-02-19T02:15:29.282Z,9.99
2023-02-19T02:18:51.074Z,10.00
2023-02-19T02:22:04.466Z,9.95
2023-02-19T02:25:28.933Z,9.88
2023-02-19T02:28:56.502Z,9.88
2023-02-19T02:32:21.904Z,9.92
2023-02-19T02:35:30.798Z,9.96
2023-02-19T02:38:37.390Z,9.96
2023-02-19T02:42:19.189Z,9.99
2023-02-19T02:45:35.757Z,9.92
2023-02-19T02:48:44.570Z,9.90
2023-02-19T02:51:53.098Z,9.94
2023-02-19T02:55:05.223Z,9.80
2023-02-19T02:58:10.253Z,9.74
2023-02-19T03:01:38.121Z,9.88
2023-02-19T03:05:14.897Z,9.91
2023-02-19T03:08:43.847Z,9.99
2023-02-19T03:12:09.129Z,10.00
2023-02-19T03:15:34.157Z,9.93
2023-02-19T03:19:04.162Z,9.81
2023-02-19T03:22:12.359Z,9.74
2023-02-19T03:25:44.089Z,9.68
2023-02-19T03:29:08.870Z,9.67
2023-02-19T03:32:18.971Z,9.69
2023-02-19T03:35:26.575Z,9.68
2023-02-19T03:38:45.638Z,9.70
2023-02-19T03:41:59.067Z,9.68
2023-02-19T03:45:11.121Z,9.59
2023-02-19T03:48:32.133Z,9.59
2023-02-19T03:51:51.437Z,9.58
2023-02-19T03:55:11.247Z,9.52
2023-02-19T03:58:28.678Z,9.34
2023-02-19T04:01:43.197Z,9.24
2023-02-19T04:04:56.070Z,9.27
2023-02-19T04:08:10.519Z,9.18
2023-02-19T04:11:17.212Z,9.05
2023-02-19T04:14:23.347Z,8.96
2023-02-19T04:17:44.428Z,9.05
2023-02-19T04:20:48.566Z,8.79
2023-02-19T04:23:51.989Z,8.73
2023-02-19T04:26:56.040Z,8.78
2023-02-19T04:29:59.211Z,8.49
2023-02-19T04:33:01.997Z,8.40
2023-02-19T04:36:05.657Z,8.23
2023-02-19T04:39:08.892Z,8.29
2023-02-19T04:42:11.869Z,8.17
2023-02-19T04:45:14.625Z,7.96
2023-02-19T04:48:17.620Z,7.95
2023-02-19T04:51:20.419Z,8.04
2023-02-19T04:54:23.626Z,7.96
2023-02-19T04:57:26.283Z,8.00
2023-02-19T05:00:29.417Z,7.88
2023-02-19T05:03:32.738Z,7.93
2023-02-19T05:06:35.926Z,7.85
2023-02-19T05:09:38.607Z,7.93
2023-02-19T05:12:41.639Z,7.86
2023-02-19T05:15:57.831Z,7.71
2023-02-19T05:19:00.983Z,7.97
2023-02-19T05:22:03.695Z,7.71
2023-02-19T05:25:06.925Z,7.59
2023-02-19T05:28:19.121Z,7.46
2023-02-19T05:31:22.333Z,7.54
2023-02-19T05:34:25.120Z,7.60
2023-02-19T05:37:28.271Z,7.50
2023-02-19T05:40:30.993Z,7.48
2023-02-19T05:43:34.237Z,7.60
2023-02-19T05:46:36.911Z,7.73
2023-02-19T05:49:40.282Z,7.74
2023-02-19T05:52:44.370Z,7.72
2023-02-19T05:55:47.470Z,7.74
2023-02-19T05:58:50.623Z,7.82
2023-02-19T06:01:55.209Z,7.81
2023-02-19T06:04:58.241Z,7.76
2023-02-19T06:08:00.938Z,7.85
2023-02-19T06:11:04.174Z,7.86
2023-02-19T06:14:07.234Z,7.85
2023-02-19T06:17:10.294Z,7.86
2023-02-19T06:20:13.303Z,7.96
2023-02-19T06:23:16.416Z,8.00
2023-02-19T06:26:20.918Z,8.16
2023-02-19T06:29:25.599Z,8.45
2023-02-19T06:32:28.394Z,8.63
2023-02-19T06:35:31.474Z,8.85
2023-02-19T06:38:34.289Z,9.03
2023-02-19T06:41:37.353Z,9.18
2023-02-19T06:44:40.100Z,9.27
2023-02-19T06:47:43.195Z,9.49
2023-02-19T06:50:45.925Z,9.61
2023-02-19T06:53:48.916Z,9.70
2023-02-19T06:56:52.009Z,9.78
2023-02-19T06:59:55.112Z,9.87
2023-02-19T07:02:57.948Z,9.96
2023-02-19T07:06:01.273Z,10.06
2023-02-19T07:09:06.109Z,10.17
2023-02-19T07:12:10.250Z,10.23
2023-02-19T07:15:12.959Z,10.30
2023-02-19T07:18:16.121Z,10.31
2023-02-19T07:21:19.724Z,10.30
2023-02-19T07:24:23.079Z,10.29
2023-02-19T07:27:25.860Z,10.26
2023-02-19T07:30:29.117Z,10.18
2023-02-19T07:33:31.946Z,10.09
2023-02-19T07:36:35.074Z,9.94
2023-02-19T07:39:37.857Z,9.71
2023-02-19T07:42:40.816Z,9.50
2023-02-19T07:45:43.596Z,9.28
2023-02-19T07:48:46.723Z,9.08
2023-02-19T07:51:49.460Z,8.91
2023-02-19T07:54:52.609Z,8.77
2023-02-19T07:57:55.373Z,8.65
2023-02-19T08:00:58.566Z,8.55
2023-02-19T08:04:01.703Z,8.46
2023-02-19T08:07:05.589Z,8.39
2023-02-19T08:10:27.180Z,8.35
2023-02-19T08:13:31.080Z,8.32
2023-02-19T08:16:42.959Z,8.32
2023-02-19T08:19:46.227Z,8.35
2023-02-19T08:22:50.379Z,8.37
2023-02-19T08:25:54.449Z,8.39
2023-02-19T08:28:59.187Z,8.42
2023-02-19T08:32:01.994Z,8.45
2023-02-19T08:35:05.433Z,8.46
2023-02-19T08:38:08.560Z,8.49
2023-02-19T08:41:13.835Z,8.51
2023-02-19T08:44:16.836Z,8.56
2023-02-19T08:47:19.777Z,8.56
2023-02-19T08:50:22.740Z,8.58
2023-02-19T08:53:26.748Z,8.61
2023-02-19T08:56:29.563Z,8.62
2023-02-19T08:59:32.901Z,8.66
2023-02-19T09:02:36.301Z,8.69
2023-02-19T09:05:39.944Z,8.78
2023-02-19T09:08:42.785Z,8.83
2023-02-19T09:11:47.848Z,8.89
2023-02-19T09:14:51.778Z,8.94
2023-02-19T09:17:54.830Z,9.06
2023-02-19T09:21:01.568Z,9.17
2023-02-19T09:24:04.969Z,9.21
2023-02-19T09:27:07.750Z,9.24
2023-02-19T09:30:11.286Z,9.30
2023-02-19T09:33:14.289Z,9.43
2023-02-19T09:36:18.982Z,9.57
2023-02-19T09:39:22.192Z,9.73
2023-02-19T09:42:30.032Z,9.94
2023-02-19T09:45:35.221Z,10.30
2023-02-19T09:48:39.022Z,10.61
2023-02-19T09:51:48.039Z,10.77
2023-02-19T09:54:57.811Z,10.98
2023-02-19T09:58:03.322Z,11.10
2023-02-19T10:01:11.202Z,12.16
2023-02-19T10:04:15.277Z,12.42
2023-02-19T10:07:24.733Z,12.24
2023-02-19T10:10:35.144Z,12.83
2023-02-19T10:13:44.017Z,13.39
2023-02-19T10:16:52.643Z,13.39
2023-02-19T10:19:57.325Z,14.60
2023-02-19T10:23:07.055Z,15.66
2023-02-19T10:26:10.763Z,16.49
2023-02-19T10:29:14.688Z,17.56
2023-02-19T10:32:24.312Z,17.64
2023-02-19T10:35:28.890Z,17.65
2023-02-19T10:38:38.840Z,17.20
2023-02-19T10:41:44.310Z,16.36
2023-02-19T10:44:59.267Z,15.44
2023-02-19T10:48:04.030Z,15.20
2023-02-19T10:51:11.567Z,15.01
2023-02-19T10:54:26.113Z,14.57
2023-02-19T10:57:33.466Z,14.89
2023-02-19T11:00:37.034Z,16.10
2023-02-19T11:03:40.449Z,17.43
2023-02-19T11:06:45.933Z,17.70
2023-02-19T11:09:54.293Z,18.07
2023-02-19T11:13:03.593Z,18.75
2023-02-19T11:16:07.135Z,19.22
2023-02-19T11:19:31.722Z,19.51
2023-02-19T11:22:39.754Z,19.35
2023-02-19T11:25:51.339Z,18.67
2023-02-19T11:29:02.740Z,18.61
2023-02-19T11:32:21.265Z,18.81
2023-02-19T11:35:25.884Z,19.56
2023-02-19T11:38:29.673Z,19.31
2023-02-19T11:41:41.403Z,19.04
2023-02-19T11:44:59.889Z,18.56
2023-02-19T11:48:15.547Z,18.94
2023-02-19T11:51:39.506Z,19.08
2023-02-19T11:55:08.800Z,19.17
2023-02-19T11:58:52.518Z,19.21
2023-02-19T12:02:54.440Z,18.77
2023-02-19T12:06:45.739Z,17.72
2023-02-19T12:10:08.830Z,16.43
2023-02-19T12:13:20.032Z,15.48
2023-02-19T12:17:03.469Z,15.28
2023-02-19T12:20:17.940Z,14.89
2023-02-19T12:23:46.122Z,14.88
2023-02-19T12:27:08.070Z,15.71
2023-02-19T12:30:44.972Z,15.13
2023-02-19T12:34:08.175Z,15.59
2023-02-19T12:37:25.775Z,16.84
2023-02-19T12:40:50.990Z,17.01
2023-02-19T12:44:30.542Z,18.18
2023-02-19T12:47:40.961Z,19.37
2023-02-19T12:50:48.947Z,19.55
2023-02-19T12:54:01.904Z,20.19
2023-02-19T12:57:30.404Z,19.78
2023-02-19T13:00:50.606Z,19.39
2023-02-19T13:04:12.022Z,17.85
2023-02-19T13:07:24.166Z,16.66
2023-02-19T13:10:33.353Z,15.54
2023-02-19T13:13:56.297Z,15.07
2023-02-19T13:17:19.044Z,14.81
2023-02-19T13:20:35.662Z,14.13
2023-02-19T13:24:01.844Z,13.48
2023-02-19T13:27:11.608Z,13.02
2023-02-19T13:35:06.655Z,12.15
2023-02-19T13:38:13.444Z,11.35
2023-02-19T13:41:28.985Z,10.96
2023-02-19T13:44:35.055Z,10.70
2023-02-19T13:48:26.453Z,10.33
2023-02-19T13:51:30.091Z,10.15
2023-02-19T13:54:40.572Z,10.04
2023-02-19T13:57:45.099Z,9.99
2023-02-19T14:00:53.843Z,10.06
2023-02-19T14:04:22.188Z,10.17
2023-02-19T14:07:28.575Z,10.50
2023-02-19T14:10:50.378Z,10.80
2023-02-19T14:13:54.939Z,11.01
2023-02-19T14:17:08.121Z,11.06
2023-02-19T14:20:17.597Z,11.02
2023-02-19T14:23:24.696Z,10.99
2023-02-19T14:26:31.144Z,10.96
2023-02-19T14:29:36.176Z,11.01
2023-02-19T14:32:43.642Z,11.01
2023-02-19T14:35:54.194Z,10.98
2023-02-19T14:39:14.426Z,10.88
2023-02-19T14:42:34.068Z,10.66
2023-02-19T14:45:54.208Z,10.43
2023-02-19T14:49:35.472Z,10.33
2023-02-19T14:52:48.941Z,10.28
2023-02-19T14:55:56.863Z,10.31
2023-02-19T14:59:12.541Z,10.28
2023-02-19T15:02:22.717Z,10.23
2023-02-19T15:05:39.642Z,10.20
2023-02-19T15:08:51.340Z,10.21
2023-02-19T15:11:56.124Z,10.29
2023-02-19T15:15:04.173Z,10.38
2023-02-19T15:18:07.402Z,10.46
2023-02-19T15:21:24.002Z,10.52
2023-02-19T15:24:28.940Z,10.61
2023-02-19T15:27:34.972Z,10.66
2023-02-19T15:30:42.124Z,10.68
2023-02-19T15:33:53.970Z,10.69
2023-02-19T15:37:05.652Z,10.67
2023-02-19T15:40:14.448Z,10.62
2023-02-19T15:43:41.077Z,10.57
2023-02-19T15:46:47.359Z,10.47
2023-02-19T15:50:25.888Z,10.45
2023-02-19T15:53:35.470Z,10.47
2023-02-19T15:56:45.514Z,10.43
2023-02-19T16:00:01.996Z,10.45
2023-02-19T16:03:21.601Z,10.47
2023-02-19T16:06:27.684Z,10.47
2023-02-19T16:09:35.472Z,10.44
2023-02-19T16:12:42.447Z,10.43
2023-02-19T16:16:17.560Z,10.38
2023-02-19T16:19:33.111Z,10.38
2023-02-19T16:22:44.175Z,10.36
2023-02-19T16:25:49.233Z,10.30
2023-02-19T16:28:55.577Z,10.21
2023-02-19T16:32:06.338Z,10.17
2023-02-19T16:35:41.197Z,10.13
2023-02-19T16:39:10.894Z,10.10
2023-02-19T16:42:16.638Z,9.79
2023-02-19T16:45:21.935Z,9.55
2023-02-19T16:48:25.881Z,9.42
2023-02-19T16:51:29.842Z,9.36
2023-02-19T16:54:33.974Z,9.21
2023-02-19T16:57:39.504Z,9.08
2023-02-19T17:00:47.873Z,9.04
2023-02-19T17:03:54.041Z,8.99
2023-02-19T17:06:58.280Z,8.96
2023-02-19T17:10:04.165Z,8.92
2023-02-19T17:13:12.243Z,8.93
2023-02-19T17:16:24.020Z,8.96
2023-02-19T17:19:28.983Z,8.97
2023-02-19T17:22:33.331Z,8.99
2023-02-19T17:25:37.053Z,8.95
2023-02-19T17:28:42.903Z,8.93
2023-02-19T17:31:46.499Z,8.77
2023-02-19T17:34:50.999Z,8.61
2023-02-19T17:37:55.071Z,8.50
2023-02-19T17:40:59.168Z,8.43
2023-02-19T17:44:03.736Z,8.33
2023-02-19T17:47:08.495Z,8.24
2023-02-19T17:50:21.130Z,8.21
2023-02-19T17:53:26.267Z,8.11
2023-02-19T17:56:32.516Z,8.06
2023-02-19T17:59:37.760Z,8.05
2023-02-19T18:02:41.797Z,8.06
2023-02-19T18:05:46.178Z,8.05
2023-02-19T18:08:54.600Z,8.04
2023-02-19T18:11:59.318Z,8.05
2023-02-19T18:15:05.929Z,8.08
2023-02-19T18:18:11.257Z,8.12
2023-02-19T18:21:15.036Z,8.10
2023-02-19T18:24:20.660Z,8.12
2023-02-19T18:27:26.551Z,8.07
2023-02-19T18:30:32.038Z,7.98
2023-02-19T18:33:36.229Z,7.85
2023-02-19T18:36:44.428Z,7.77
2023-02-19T18:39:49.342Z,7.69
2023-02-19T18:42:56.795Z,7.59
2023-02-19T18:46:00.648Z,7.56
2023-02-19T18:49:04.748Z,7.47
2023-02-19T18:52:08.201Z,7.45
2023-02-19T18:55:12.943Z,7.45
2023-02-19T18:58:17.678Z,7.50
2023-02-19T19:01:23.514Z,7.56
2023-02-19T19:04:28.706Z,7.57
2023-02-19T19:07:33.159Z,7.56
2023-02-19T19:10:37.568Z,7.62
2023-02-19T19:13:41.830Z,7.63
2023-02-19T19:16:46.844Z,7.63
2023-02-19T19:19:50.994Z,7.65
2023-02-19T19:22:59.269Z,7.61
2023-02-19T19:26:07.067Z,7.60
2023-02-19T19:29:15.189Z,7.54
2023-02-19T19:32:23.065Z,7.48
2023-02-19T19:35:29.241Z,7.41
2023-02-19T19:38:33.898Z,7.35
2023-02-19T19:41:38.974Z,7.26
2023-02-19T19:44:46.701Z,7.24
2023-02-19T19:47:50.750Z,7.17
2023-02-19T19:50:57.467Z,7.12
2023-02-19T19:54:02.616Z,7.08
2023-02-19T19:57:06.853Z,7.03
2023-02-19T20:00:16.787Z,7.07
2023-02-19T20:03:21.543Z,7.12
2023-02-19T20:06:31.766Z,7.05
2023-02-19T20:09:35.934Z,7.02
2023-02-19T20:12:44.030Z,6.95
2023-02-19T20:15:50.390Z,6.89
2023-02-19T20:18:55.269Z,6.81
2023-02-19T20:22:03.322Z,6.73
2023-02-19T20:25:07.201Z,6.71
2023-02-19T20:28:11.908Z,6.63
2023-02-19T20:31:16.407Z,6.51
2023-02-19T20:34:21.162Z,6.44
2023-02-19T20:37:25.768Z,6.36
2023-02-19T20:40:32.208Z,6.26
2023-02-19T20:43:36.935Z,6.15
2023-02-19T20:46:47.401Z,6.03
2023-02-19T20:49:52.516Z,5.91
2023-02-19T20:52:56.994Z,5.80
2023-02-19T20:56:01.597Z,5.72
2023-02-19T20:59:05.932Z,5.61
2023-02-19T21:02:19.907Z,5.50
2023-02-19T21:05:24.146Z,5.40
2023-02-19T21:08:27.883Z,5.26
2023-02-19T21:11:35.768Z,5.14
2023-02-19T21:14:40.158Z,5.07
2023-02-19T21:17:47.262Z,4.97
2023-02-19T21:20:52.539Z,4.89
2023-02-19T21:23:58.332Z,4.83
2023-02-19T21:27:01.812Z,4.83
2023-02-19T21:30:07.256Z,4.78
2023-02-19T21:33:10.486Z,4.78
2023-02-19T21:36:14.410Z,4.72
2023-02-19T21:39:21.209Z,4.60
2023-02-19T21:42:26.663Z,4.57
2023-02-19T21:45:29.798Z,4.49
2023-02-19T21:48:33.080Z,4.48
2023-02-19T21:51:39.089Z,4.34
2023-02-19T21:54:42.540Z,4.29
2023-02-19T21:57:45.882Z,4.24
2023-02-19T22:00:49.291Z,4.15
2023-02-19T22:03:52.851Z,4.07
2023-02-19T22:06:56.765Z,4.01
2023-02-19T22:09:59.760Z,3.99
2023-02-19T22:13:02.498Z,3.93
2023-02-19T22:16:06.074Z,3.91
2023-02-19T22:19:10.099Z,3.86
2023-02-19T22:22:13.315Z,3.81
2023-02-19T22:25:16.217Z,3.80
2023-02-19T22:28:19.311Z,3.78
2023-02-19T22:31:24.271Z,3.74
2023-02-19T22:34:27.331Z,3.71
2023-02-19T22:37:30.116Z,3.71
2023-02-19T22:40:33.140Z,3.69
2023-02-19T22:43:35.903Z,3.68
2023-02-19T22:46:39.032Z,3.63
2023-02-19T22:49:43.802Z,3.62
2023-02-19T22:52:46.895Z,3.63
2023-02-19T22:55:49.684Z,3.59
2023-02-19T22:58:54.413Z,3.56
2023-02-19T23:01:57.364Z,3.58
2023-02-19T23:05:00.435Z,3.59
2023-02-19T23:08:03.132Z,3.52
2023-02-19T23:11:06.223Z,3.54
2023-02-19T23:14:08.979Z,3.61
2023-02-19T23:17:12.065Z,3.63
2023-02-19T23:20:14.899Z,3.69
2023-02-19T23:23:17.999Z,3.70
2023-02-19T23:26:20.708Z,3.67
2023-02-19T23:29:25.691Z,3.61
2023-02-19T23:32:28.436Z,3.48
2023-02-19T23:35:32.205Z,3.45
2023-02-19T23:38:34.984Z,3.38
2023-02-19T23:41:38.632Z,3.33
2023-02-19T23:44:41.307Z,3.26
2023-02-19T23:47:44.383Z,3.16
2023-02-19T23:50:47.082Z,3.08
2023-02-19T23:53:50.117Z,3.06
2023-02-19T23:56:52.812Z,3.04
2023-02-19T23:59:55.783Z,3.02
